Caribbean Princess — ZCDG8 — position and weather

sailwx.info

Track history (hours):
 
Tides and Currents Weather Stations Pressure Air Temp Water Temp Dewpoint Dewpoint Depression Visibility Wind Speed Wind Dir Waves Ship Positions

Caribbean Princess

Operator: Princess Cruises

Last reported at 2014-Nov-01 12:26 UTC. Time now 2014-Nov-01 13:06 UTC.
Position N 26°06' W 080°07'.

Type: Passenger vessel. MMSI: 310423000.

Date/timePositionNaut miles runAvg speedWind from/ knotsBaromVisibWave heightAir tempDewpointWater temp
2014-Nov-01 12:26N 26°06' W 080°07'0 0.0
2014-Nov-01 11:26N 26°06' W 080°07'0 0.0
2014-Nov-01 10:33N 26°06' W 080°07'7 6.8
2014-Nov-01 09:34N 26°05' W 079°60'1514.9
2014-Nov-01 08:34N 25°52' W 079°52'1515.3
2014-Nov-01 07:33N 25°36' W 079°53'1615.7
2014-Nov-01 06:32N 25°21' W 079°56'1515.7
2014-Nov-01 05:34N 25°05' W 079°59'1816.6
2014-Nov-01 04:29N 24°52' W 080°12'45416.6
2014-Oct-31 01:08N 20°35' W 086°57'610.9
2014-Oct-31 00:33N 20°29' W 086°59'0 0.1
2014-Oct-30 21:32N 20°29' W 086°59'0 0.0
2014-Oct-30 17:26N 20°29' W 086°59'0 0.0
2014-Oct-30 16:32N 20°29' W 086°59'0 0.0
2014-Oct-30 15:26N 20°29' W 086°59'0 0.1
2014-Oct-30 14:32N 20°29' W 086°59'292 5.7
2014-Oct-28 11:00N 23°18' W 082°42'21616.7 100 / 101017.210.8 0.526.020.729.0
2014-Oct-27 22:05N 25°47' W 079°49'917.7
2014-Oct-27 21:33N 25°54' W 079°55'1514.7
2014-Oct-27 20:33N 26°06' W 080°05'2 1.4
2014-Oct-27 19:24N 26°06' W 080°07'0 0.0
2014-Oct-27 18:27N 26°06' W 080°07'0 0.0
2014-Oct-27 17:27N 26°06' W 080°07'0 0.0
2014-Oct-27 16:27N 26°06' W 080°07'0 0.0
2014-Oct-27 15:30N 26°06' W 080°07'0 0.0
2014-Oct-27 14:30N 26°06' W 080°07'0 0.0
2014-Oct-27 13:30N 26°06' W 080°07'0 0.0
2014-Oct-27 12:33N 26°06' W 080°07'0 0.0
2014-Oct-27 11:33N 26°06' W 080°07'0 0.0
2014-Oct-27 10:33N 26°06' W 080°07'4 4.0
2014-Oct-27 09:33N 26°06' W 080°03'1312.8
2014-Oct-27 08:33N 26°08' W 079°49'1313.1
2014-Oct-27 07:33N 26°11' W 079°35'1313.1
2014-Oct-27 06:33N 26°16' W 079°21'  
2014-Oct-23 23:14N 26°13' W 079°20'1318.6
2014-Oct-23 22:33N 26°11' W 079°34'1818.4
2014-Oct-23 21:33N 26°07' W 079°54'1211.8
2014-Oct-23 20:33N 26°06' W 080°07'0 0.1
2014-Oct-23 19:31N 26°06' W 080°07'0 0.0
2014-Oct-23 18:31N 26°06' W 080°07'0 0.0
2014-Oct-23 17:31N 26°06' W 080°07'0 0.0
2014-Oct-23 16:31N 26°06' W 080°07'0 0.0
2014-Oct-23 15:31N 26°06' W 080°07'0 0.0
2014-Oct-23 14:31N 26°06' W 080°07'0 0.0
2014-Oct-23 13:31N 26°06' W 080°07'0 0.0
2014-Oct-23 12:22N 26°06' W 080°07'0 0.0
2014-Oct-23 11:25N 26°06' W 080°07'0 0.0
2014-Oct-23 10:25N 26°06' W 080°07'0 0.0
2014-Oct-23 09:33N 26°06' W 080°07'7 7.0
2014-Oct-23 08:33N 26°05' W 079°59'1514.6
2014-Oct-23 07:33N 25°51' W 079°53'1414.2
2014-Oct-23 06:34N 25°37' W 079°53'  
Track history (hours):
 
Tides and Currents Weather Stations Pressure Air Temp Water Temp Dewpoint Dewpoint Depression Visibility Wind Speed Wind Dir Waves Ship Positions

Caribbean Princess

Operator: Princess Cruises

Last reported at 2014-Nov-01 12:26 UTC. Time now 2014-Nov-01 13:06 UTC.
Position N 26°06' W 080°07'.

Type: Passenger vessel. MMSI: 310423000.

Date/timePositionNaut miles runAvg speedWind from/ knotsBaromVisibWave heightAir tempDewpointWater temp
2014-Nov-01 12:26N 26°06' W 080°07'0 0.0
2014-Nov-01 11:26N 26°06' W 080°07'0 0.0
2014-Nov-01 10:33N 26°06' W 080°07'7 6.8
2014-Nov-01 09:34N 26°05' W 079°60'1514.9
2014-Nov-01 08:34N 25°52' W 079°52'1515.3
2014-Nov-01 07:33N 25°36' W 079°53'1615.7
2014-Nov-01 06:32N 25°21' W 079°56'1515.7
2014-Nov-01 05:34N 25°05' W 079°59'1816.6
2014-Nov-01 04:29N 24°52' W 080°12'45416.6
2014-Oct-31 01:08N 20°35' W 086°57'610.9
2014-Oct-31 00:33N 20°29' W 086°59'0 0.1
2014-Oct-30 21:32N 20°29' W 086°59'0 0.0
2014-Oct-30 17:26N 20°29' W 086°59'0 0.0
2014-Oct-30 16:32N 20°29' W 086°59'0 0.0
2014-Oct-30 15:26N 20°29' W 086°59'0 0.1
2014-Oct-30 14:32N 20°29' W 086°59'292 5.7
2014-Oct-28 11:00N 23°18' W 082°42'21616.7 100 / 101017.210.8 0.526.020.729.0
2014-Oct-27 22:05N 25°47' W 079°49'917.7
2014-Oct-27 21:33N 25°54' W 079°55'1514.7
2014-Oct-27 20:33N 26°06' W 080°05'2 1.4
2014-Oct-27 19:24N 26°06' W 080°07'0 0.0
2014-Oct-27 18:27N 26°06' W 080°07'0 0.0
2014-Oct-27 17:27N 26°06' W 080°07'0 0.0
2014-Oct-27 16:27N 26°06' W 080°07'0 0.0
2014-Oct-27 15:30N 26°06' W 080°07'0 0.0
2014-Oct-27 14:30N 26°06' W 080°07'0 0.0
2014-Oct-27 13:30N 26°06' W 080°07'0 0.0
2014-Oct-27 12:33N 26°06' W 080°07'0 0.0
2014-Oct-27 11:33N 26°06' W 080°07'0 0.0
2014-Oct-27 10:33N 26°06' W 080°07'4 4.0
2014-Oct-27 09:33N 26°06' W 080°03'1312.8
2014-Oct-27 08:33N 26°08' W 079°49'1313.1
2014-Oct-27 07:33N 26°11' W 079°35'1313.1
2014-Oct-27 06:33N 26°16' W 079°21'  
2014-Oct-23 23:14N 26°13' W 079°20'1318.6
2014-Oct-23 22:33N 26°11' W 079°34'1818.4
2014-Oct-23 21:33N 26°07' W 079°54'1211.8
2014-Oct-23 20:33N 26°06' W 080°07'0 0.1
2014-Oct-23 19:31N 26°06' W 080°07'0 0.0
2014-Oct-23 18:31N 26°06' W 080°07'0 0.0
2014-Oct-23 17:31N 26°06' W 080°07'0 0.0
2014-Oct-23 16:31N 26°06' W 080°07'0 0.0
2014-Oct-23 15:31N 26°06' W 080°07'0 0.0
2014-Oct-23 14:31N 26°06' W 080°07'0 0.0
2014-Oct-23 13:31N 26°06' W 080°07'0 0.0
2014-Oct-23 12:22N 26°06' W 080°07'0 0.0
2014-Oct-23 11:25N 26°06' W 080°07'0 0.0
2014-Oct-23 10:25N 26°06' W 080°07'0 0.0
2014-Oct-23 09:33N 26°06' W 080°07'7 7.0
2014-Oct-23 08:33N 26°05' W 079°59'1514.6
2014-Oct-23 07:33N 25°51' W 079°53'1414.2
2014-Oct-23 06:34N 25°37' W 079°53'  

Dump ship's entire track history